createdAt,value
2019-02-25T00:00:22.788Z,80.67
2019-02-25T00:01:22.756Z,80.48
2019-02-25T00:02:22.731Z,80.57
2019-02-25T00:03:22.709Z,80.48
2019-02-25T00:04:22.682Z,80.38
2019-02-25T00:05:22.656Z,79.72
2019-02-25T00:06:22.642Z,80.19
2019-02-25T00:07:22.611Z,79.72
2019-02-25T00:08:22.586Z,79.91
2019-02-25T00:09:22.569Z,79.91
2019-02-25T00:10:22.543Z,80.00
2019-02-25T00:11:22.512Z,79.44
2019-02-25T00:12:22.489Z,79.63
2019-02-25T00:13:22.464Z,79.91
2019-02-25T00:14:22.439Z,80.19
2019-02-25T00:15:22.426Z,80.19
2019-02-25T00:16:22.396Z,79.72
2019-02-25T00:17:22.366Z,80.38
2019-02-25T00:18:22.347Z,80.57
2019-02-25T00:19:22.317Z,80.67
2019-02-25T00:20:22.302Z,80.38
2019-02-25T00:21:22.273Z,80.57
2019-02-25T00:22:22.244Z,80.48
2019-02-25T00:23:22.222Z,80.67
2019-02-25T00:24:22.197Z,80.38
2019-02-25T00:25:22.172Z,80.48
2019-02-25T00:26:22.151Z,79.63
2019-02-25T00:27:22.123Z,79.72
2019-02-25T00:28:22.097Z,80.00
2019-02-25T00:29:22.074Z,80.19
2019-02-25T00:30:22.054Z,79.06
2019-02-25T00:31:22.025Z,79.72
2019-02-25T00:32:22.004Z,79.72
2019-02-25T00:33:21.979Z,79.91
2019-02-25T00:34:21.953Z,80.67
2019-02-25T00:35:21.927Z,80.29
2019-02-25T00:36:21.911Z,80.48
2019-02-25T00:37:21.879Z,80.38
2019-02-25T00:38:21.854Z,80.48
2019-02-25T00:39:21.830Z,80.29
2019-02-25T00:40:21.808Z,79.72
2019-02-25T00:41:21.783Z,79.25
2019-02-25T00:42:21.769Z,79.68
2019-02-25T00:43:21.731Z,79.96
2019-02-25T00:44:21.707Z,81.01
2019-02-25T00:45:21.684Z,82.33
2019-02-25T00:46:21.666Z,82.90
2019-02-25T00:47:21.636Z,83.33
2019-02-25T00:48:21.615Z,84.13
2019-02-25T00:49:21.591Z,84.23
2019-02-25T00:50:21.563Z,83.66
2019-02-25T00:51:21.537Z,84.13
2019-02-25T00:52:21.511Z,84.13
2019-02-25T00:53:21.487Z,84.23
2019-02-25T00:54:21.462Z,84.23
2019-02-25T00:55:21.440Z,84.70
2019-02-25T00:56:21.420Z,84.04
2019-02-25T00:57:21.389Z,83.94
2019-02-25T00:58:21.374Z,83.47
2019-02-25T00:59:21.344Z,83.37
2019-02-25T01:00:21.321Z,83.09
2019-02-25T01:01:21.298Z,83.18
2019-02-25T01:02:21.274Z,82.24
2019-02-25T01:03:21.245Z,83.00
2019-02-25T01:04:21.227Z,82.71
2019-02-25T01:05:21.200Z,83.00
2019-02-25T01:06:21.172Z,82.90
2019-02-25T01:07:21.149Z,82.90
2019-02-25T01:08:21.120Z,82.90
2019-02-25T01:09:21.096Z,83.09
2019-02-25T01:10:21.077Z,82.62
2019-02-25T01:11:21.055Z,83.09
2019-02-25T01:12:21.033Z,83.09
2019-02-25T01:13:20.997Z,82.81
2019-02-25T01:14:20.973Z,82.90
2019-02-25T01:15:20.951Z,83.00
2019-02-25T01:16:20.926Z,82.62
2019-02-25T01:17:20.901Z,81.38
2019-02-25T01:18:20.883Z,81.29
2019-02-25T01:19:20.853Z,81.29
2019-02-25T01:20:20.827Z,81.95
2019-02-25T01:21:20.800Z,82.05
2019-02-25T01:22:20.780Z,82.71
2019-02-25T01:23:20.754Z,82.71
2019-02-25T01:24:20.729Z,83.37
2019-02-25T01:25:20.705Z,84.47
2019-02-25T01:26:20.685Z,87.02
2019-02-25T01:27:20.656Z,88.82
2019-02-25T01:28:20.632Z,89.96
2019-02-25T01:29:20.604Z,90.72
2019-02-25T01:30:20.580Z,91.76
2019-02-25T01:31:20.556Z,92.05
2019-02-25T01:32:20.531Z,92.05
2019-02-25T01:33:20.505Z,92.33
2019-02-25T01:34:20.481Z,92.52
2019-02-25T01:35:20.456Z,92.24
2019-02-25T01:36:20.433Z,91.76
2019-02-25T01:37:20.412Z,91.57
2019-02-25T01:38:20.381Z,91.29
2019-02-25T01:39:20.361Z,91.76
2019-02-25T01:40:20.332Z,89.77
2019-02-25T01:41:20.308Z,90.25
2019-02-25T01:42:20.283Z,90.25
2019-02-25T01:43:20.259Z,90.06
2019-02-25T01:44:20.235Z,92.33
2019-02-25T01:45:20.213Z,93.75
2019-02-25T01:46:20.188Z,93.84
2019-02-25T01:47:20.161Z,93.75
2019-02-25T01:48:20.135Z,94.13
2019-02-25T01:49:20.111Z,94.13
2019-02-25T01:50:20.084Z,94.70
2019-02-25T01:51:22.089Z,94.13
2019-02-25T01:52:20.039Z,94.13
2019-02-25T01:53:20.014Z,93.65
2019-02-25T01:54:19.986Z,93.18
2019-02-25T01:55:19.963Z,92.14
2019-02-25T01:56:19.937Z,90.34
2019-02-25T01:57:19.911Z,89.68
2019-02-25T01:58:19.886Z,89.11
2019-02-25T01:59:20.015Z,88.73
2019-02-25T02:00:19.837Z,89.11
2019-02-25T02:01:19.817Z,89.58
2019-02-25T02:02:19.788Z,90.06
2019-02-25T02:03:19.766Z,90.06
2019-02-25T02:04:19.739Z,90.72
2019-02-25T02:05:19.711Z,91.38
2019-02-25T02:06:19.688Z,91.57
2019-02-25T02:07:19.666Z,91.86
2019-02-25T02:08:19.643Z,91.29
2019-02-25T02:09:19.614Z,92.14
2019-02-25T02:10:19.590Z,91.57
2019-02-25T02:11:19.564Z,90.53
2019-02-25T02:12:19.543Z,89.77
2019-02-25T02:13:19.515Z,89.11
2019-02-25T02:14:19.493Z,89.87
2019-02-25T02:15:19.465Z,88.92
2019-02-25T02:16:19.441Z,88.26
2019-02-25T02:17:19.416Z,88.45
2019-02-25T02:18:19.397Z,88.07
2019-02-25T02:19:19.365Z,87.98
2019-02-25T02:20:19.345Z,87.83
2019-02-25T02:21:19.317Z,87.12
2019-02-25T02:22:19.292Z,87.12
2019-02-25T02:23:19.266Z,86.98
2019-02-25T02:24:19.240Z,86.65
2019-02-25T02:25:19.221Z,86.36
2019-02-25T02:26:21.070Z,85.61
2019-02-25T02:27:19.173Z,85.61
2019-02-25T02:28:19.142Z,85.74
2019-02-25T02:29:19.121Z,86.03
2019-02-25T02:30:19.099Z,85.93
2019-02-25T02:31:19.072Z,85.65
2019-02-25T02:32:19.058Z,85.55
2019-02-25T02:33:19.015Z,85.74
2019-02-25T02:34:19.004Z,85.99
2019-02-25T02:35:18.976Z,85.80
2019-02-25T02:36:18.943Z,86.65
2019-02-25T02:37:18.917Z,86.93
2019-02-25T02:38:18.893Z,87.46
2019-02-25T02:39:18.868Z,88.87
2019-02-25T02:40:18.843Z,89.82
2019-02-25T02:41:18.826Z,90.20
2019-02-25T02:42:18.799Z,90.01
2019-02-25T02:43:18.769Z,89.92
2019-02-25T02:44:18.744Z,89.44
2019-02-25T02:45:18.722Z,89.54
2019-02-25T02:46:18.693Z,89.63
2019-02-25T02:47:18.672Z,90.20
2019-02-25T02:48:18.646Z,90.77
2019-02-25T02:49:18.617Z,90.58
2019-02-25T02:50:18.594Z,91.34
2019-02-25T02:51:18.569Z,91.34
2019-02-25T02:52:18.544Z,91.53
2019-02-25T02:53:18.663Z,92.19
2019-02-25T02:54:18.494Z,91.62
2019-02-25T02:55:18.467Z,92.10
2019-02-25T02:56:18.442Z,91.91
2019-02-25T02:57:18.417Z,92.10
2019-02-25T02:58:18.392Z,91.53
2019-02-25T02:59:18.366Z,91.29
2019-02-25T03:00:18.344Z,90.63
2019-02-25T03:01:18.333Z,90.06
2019-02-25T03:02:18.296Z,89.06
2019-02-25T03:03:18.275Z,88.64
2019-02-25T03:04:18.247Z,89.01
2019-02-25T03:05:18.218Z,88.82
2019-02-25T03:06:18.197Z,89.01
2019-02-25T03:07:18.167Z,88.35
2019-02-25T03:08:18.143Z,87.78
2019-02-25T03:09:18.117Z,87.59
2019-02-25T03:10:18.113Z,87.59
2019-02-25T03:11:18.069Z,87.40
2019-02-25T03:12:18.050Z,87.69
2019-02-25T03:13:18.014Z,87.88
2019-02-25T03:14:17.991Z,88.26
2019-02-25T03:15:17.967Z,88.07
2019-02-25T03:16:17.947Z,88.82
2019-02-25T03:17:17.914Z,88.64
2019-02-25T03:18:17.894Z,89.30
2019-02-25T03:19:17.869Z,88.82
2019-02-25T03:20:17.841Z,88.35
2019-02-25T03:21:17.830Z,88.26
2019-02-25T03:22:17.790Z,88.45
2019-02-25T03:23:17.763Z,88.26
2019-02-25T03:24:17.750Z,87.88
2019-02-25T03:25:17.738Z,87.59
2019-02-25T03:26:17.691Z,87.02
2019-02-25T03:27:17.667Z,87.50
2019-02-25T03:28:17.643Z,87.40
2019-02-25T03:29:17.623Z,87.78
2019-02-25T03:30:17.633Z,87.98
2019-02-25T03:31:17.569Z,87.69
2019-02-25T03:32:17.546Z,88.26
2019-02-25T03:33:17.514Z,88.17
2019-02-25T03:34:17.514Z,88.07
2019-02-25T03:35:17.467Z,87.98
2019-02-25T03:36:17.447Z,87.02
2019-02-25T03:37:17.420Z,87.31
2019-02-25T03:38:17.390Z,87.50
2019-02-25T03:39:17.363Z,87.21
2019-02-25T03:40:17.341Z,87.78
2019-02-25T03:41:17.315Z,87.59
2019-02-25T03:42:17.288Z,87.93
2019-02-25T03:43:17.270Z,88.26
2019-02-25T03:44:17.243Z,89.01
2019-02-25T03:45:17.215Z,88.92
2019-02-25T03:46:17.194Z,88.64
2019-02-25T03:47:17.163Z,88.82
2019-02-25T03:48:17.139Z,88.45
2019-02-25T03:49:17.114Z,88.02
2019-02-25T03:50:17.106Z,88.31
2019-02-25T03:51:17.063Z,88.97
2019-02-25T03:52:17.036Z,89.35
2019-02-25T03:53:17.012Z,89.63
2019-02-25T03:54:16.994Z,90.01
2019-02-25T03:55:16.979Z,90.01
2019-02-25T03:56:16.936Z,90.20
2019-02-25T03:57:16.916Z,90.39
2019-02-25T03:58:16.883Z,90.39
2019-02-25T03:59:16.862Z,90.01
2019-02-25T04:00:16.835Z,89.63
2019-02-25T04:01:16.810Z,88.49
2019-02-25T04:02:16.782Z,87.65
2019-02-25T04:03:16.763Z,88.02
2019-02-25T04:04:16.736Z,88.59
2019-02-25T04:05:16.708Z,89.82
2019-02-25T04:06:16.687Z,90.67
2019-02-25T04:07:16.658Z,90.67
2019-02-25T04:08:16.634Z,91.24
2019-02-25T04:09:16.607Z,91.43
2019-02-25T04:10:16.606Z,91.34
2019-02-25T04:11:16.568Z,91.53
2019-02-25T04:12:16.533Z,91.34
2019-02-25T04:13:16.508Z,90.67
2019-02-25T04:14:16.480Z,90.58
2019-02-25T04:15:16.467Z,90.30
2019-02-25T04:16:16.435Z,89.92
2019-02-25T04:17:16.407Z,90.01
2019-02-25T04:18:16.382Z,89.63
2019-02-25T04:19:16.355Z,88.87
2019-02-25T04:20:16.337Z,87.74
2019-02-25T04:21:16.312Z,86.51
2019-02-25T04:22:16.325Z,86.41
2019-02-25T04:23:16.261Z,86.32
2019-02-25T04:24:16.228Z,86.41
2019-02-25T04:25:16.206Z,86.70
2019-02-25T04:26:16.178Z,86.70
2019-02-25T04:27:16.156Z,87.08
2019-02-25T04:28:16.131Z,87.74
2019-02-25T04:29:16.101Z,88.12
2019-02-25T04:30:16.074Z,88.49
2019-02-25T04:31:16.054Z,88.12
2019-02-25T04:32:16.025Z,87.55
2019-02-25T04:33:15.999Z,87.46
2019-02-25T04:34:15.974Z,88.31
2019-02-25T04:35:15.949Z,88.49
2019-02-25T04:36:15.925Z,88.74
2019-02-25T04:37:15.898Z,89.97
2019-02-25T04:38:15.872Z,89.78
2019-02-25T04:39:15.848Z,90.30
2019-02-25T04:40:15.827Z,90.48
2019-02-25T04:41:15.799Z,90.48
2019-02-25T04:42:15.779Z,90.58
2019-02-25T04:43:15.753Z,90.01
2019-02-25T04:44:15.722Z,89.54
2019-02-25T04:45:15.693Z,90.01
2019-02-25T04:46:15.667Z,89.82
2019-02-25T04:47:15.649Z,89.44
2019-02-25T04:48:15.618Z,89.73
2019-02-25T04:49:15.592Z,89.25
2019-02-25T04:50:15.569Z,89.63
2019-02-25T04:51:15.540Z,89.16
2019-02-25T04:52:15.516Z,88.87
2019-02-25T04:53:15.495Z,88.87
2019-02-25T04:54:15.475Z,88.87
2019-02-25T04:55:15.443Z,88.02
2019-02-25T04:56:15.414Z,88.31
2019-02-25T04:57:15.395Z,88.68
2019-02-25T04:58:15.376Z,88.78
2019-02-25T04:59:15.340Z,89.16
2019-02-25T05:00:15.319Z,88.78
2019-02-25T05:01:15.289Z,89.25
2019-02-25T05:02:15.262Z,89.35
2019-02-25T05:03:15.238Z,89.35
2019-02-25T05:04:15.213Z,89.25
2019-02-25T05:05:15.185Z,89.06
2019-02-25T05:06:15.166Z,88.49
2019-02-25T05:07:15.133Z,88.87
2019-02-25T05:08:15.110Z,88.49
2019-02-25T05:09:15.097Z,88.31
2019-02-25T05:10:15.064Z,88.40
2019-02-25T05:11:15.035Z,88.12
2019-02-25T05:12:15.014Z,88.12
2019-02-25T05:13:14.982Z,88.59
2019-02-25T05:14:14.956Z,88.78
2019-02-25T05:15:14.934Z,89.44
2019-02-25T05:16:14.906Z,90.11
2019-02-25T05:17:14.880Z,90.20
2019-02-25T05:18:14.867Z,90.11
2019-02-25T05:19:14.833Z,90.11
2019-02-25T05:20:14.807Z,90.20
2019-02-25T05:21:14.779Z,90.01
2019-02-25T05:22:14.753Z,90.20
2019-02-25T05:23:14.726Z,90.01
2019-02-25T05:24:14.702Z,90.20
2019-02-25T05:25:14.679Z,89.82
2019-02-25T05:26:14.650Z,89.92
2019-02-25T05:27:14.634Z,90.20
2019-02-25T05:28:14.616Z,89.44
2019-02-25T05:29:14.573Z,89.44
2019-02-25T05:30:14.570Z,89.16
2019-02-25T05:31:14.525Z,89.16
2019-02-25T05:32:14.496Z,88.59
2019-02-25T05:33:14.473Z,88.87
2019-02-25T05:34:14.449Z,88.97
2019-02-25T05:35:14.436Z,89.06
2019-02-25T05:36:14.400Z,89.16
2019-02-25T05:37:14.379Z,88.59
2019-02-25T05:38:14.347Z,88.78
2019-02-25T05:39:14.319Z,88.87
2019-02-25T05:40:14.299Z,88.87
2019-02-25T05:41:14.270Z,88.02
2019-02-25T05:42:14.247Z,88.31
2019-02-25T05:43:14.220Z,88.40
2019-02-25T05:44:14.194Z,88.97
2019-02-25T05:45:14.175Z,88.78
2019-02-25T05:46:14.149Z,88.78
2019-02-25T05:47:14.121Z,89.16
2019-02-25T05:48:14.093Z,88.97
2019-02-25T05:49:14.066Z,88.87
2019-02-25T05:50:14.087Z,88.68
2019-02-25T05:51:14.024Z,88.12
2019-02-25T05:52:13.994Z,88.31
2019-02-25T05:53:13.963Z,88.12
2019-02-25T05:54:13.944Z,87.84
2019-02-25T05:55:13.974Z,88.21
2019-02-25T05:56:13.887Z,88.02
2019-02-25T05:57:13.872Z,88.12
2019-02-25T05:58:13.844Z,87.93
2019-02-25T05:59:13.815Z,88.12
2019-02-25T06:00:13.789Z,88.02
2019-02-25T06:01:13.759Z,88.78
2019-02-25T06:02:13.736Z,88.97
2019-02-25T06:03:13.707Z,88.87
2019-02-25T06:04:13.682Z,89.35
2019-02-25T06:05:13.658Z,89.54
2019-02-25T06:06:13.631Z,89.63
2019-02-25T06:07:13.606Z,89.59
2019-02-25T06:08:13.583Z,90.16
2019-02-25T06:09:13.556Z,90.44
2019-02-25T06:10:13.529Z,90.72
2019-02-25T06:11:13.513Z,91.01
2019-02-25T06:12:13.479Z,91.29
2019-02-25T06:13:13.454Z,91.58
2019-02-25T06:14:13.429Z,91.58
2019-02-25T06:15:13.405Z,91.62
2019-02-25T06:16:13.379Z,91.53
2019-02-25T06:17:13.351Z,91.34
2019-02-25T06:18:13.325Z,90.67
2019-02-25T06:19:13.301Z,90.77
2019-02-25T06:20:13.305Z,89.92
2019-02-25T06:21:13.254Z,90.01
2019-02-25T06:22:13.223Z,89.92
2019-02-25T06:23:13.202Z,90.06
2019-02-25T06:24:13.173Z,90.44
2019-02-25T06:25:13.184Z,90.16
2019-02-25T06:26:13.129Z,90.72
2019-02-25T06:27:13.097Z,90.82
2019-02-25T06:28:13.070Z,90.72
2019-02-25T06:29:13.044Z,91.29
2019-02-25T06:30:13.024Z,91.58
2019-02-25T06:31:12.997Z,91.48
2019-02-25T06:32:12.966Z,92.14
2019-02-25T06:33:12.940Z,91.86
2019-02-25T06:34:12.914Z,92.33
2019-02-25T06:35:12.897Z,92.61
2019-02-25T06:36:12.872Z,92.33
2019-02-25T06:37:12.839Z,92.90
2019-02-25T06:38:12.816Z,93.09
2019-02-25T06:39:12.800Z,92.71
2019-02-25T06:40:15.250Z,92.10
2019-02-25T06:41:12.745Z,92.38
2019-02-25T06:42:12.710Z,92.10
2019-02-25T06:43:12.686Z,91.67
2019-02-25T06:44:12.659Z,91.15
2019-02-25T06:45:12.636Z,90.53
2019-02-25T06:46:12.607Z,90.58
2019-02-25T06:47:12.583Z,90.72
2019-02-25T06:48:12.559Z,91.20
2019-02-25T06:49:12.531Z,91.58
2019-02-25T06:50:12.503Z,91.58
2019-02-25T06:51:12.480Z,92.14
2019-02-25T06:52:12.461Z,92.43
2019-02-25T06:53:12.427Z,92.24
2019-02-25T06:54:12.402Z,92.05
2019-02-25T06:55:12.378Z,92.24
2019-02-25T06:56:12.350Z,92.33
2019-02-25T06:57:12.324Z,92.24
2019-02-25T06:58:12.301Z,92.24
2019-02-25T06:59:12.274Z,92.90
2019-02-25T07:00:12.250Z,93.66
2019-02-25T07:01:12.220Z,93.47
2019-02-25T07:02:12.196Z,93.66
2019-02-25T07:03:12.175Z,93.75
2019-02-25T07:04:12.145Z,93.37
2019-02-25T07:05:12.118Z,94.04
2019-02-25T07:06:12.093Z,93.37
2019-02-25T07:07:12.067Z,93.66
2019-02-25T07:08:12.042Z,93.66
2019-02-25T07:09:12.016Z,93.18
2019-02-25T07:10:11.995Z,93.70
2019-02-25T07:11:11.966Z,92.85
2019-02-25T07:12:11.943Z,92.19
2019-02-25T07:13:11.911Z,91.91
2019-02-25T07:14:11.891Z,91.62
2019-02-25T07:15:11.861Z,91.91
2019-02-25T07:16:11.838Z,91.72
2019-02-25T07:17:11.811Z,91.05
2019-02-25T07:18:11.786Z,91.34
2019-02-25T07:19:11.760Z,91.67
2019-02-25T07:20:11.732Z,92.24
2019-02-25T07:21:11.716Z,92.90
2019-02-25T07:22:11.699Z,93.66
2019-02-25T07:23:11.672Z,93.94
2019-02-25T07:24:11.632Z,93.85
2019-02-25T07:25:11.610Z,94.23
2019-02-25T07:26:11.584Z,94.65
2019-02-25T07:27:11.563Z,94.93
2019-02-25T07:28:11.530Z,95.03
2019-02-25T07:29:11.506Z,93.89
2019-02-25T07:30:11.479Z,94.27
2019-02-25T07:31:11.455Z,94.18
2019-02-25T07:32:11.429Z,93.32
2019-02-25T07:33:11.404Z,93.80
2019-02-25T07:34:11.388Z,93.99
2019-02-25T07:35:11.350Z,93.99
2019-02-25T07:36:11.346Z,92.94
2019-02-25T07:37:11.299Z,92.38
2019-02-25T07:38:11.297Z,92.29
2019-02-25T07:39:11.247Z,92.29
2019-02-25T07:40:11.222Z,94.27
2019-02-25T07:41:11.194Z,95.21
2019-02-25T07:42:11.174Z,95.31
2019-02-25T07:43:11.142Z,95.97
2019-02-25T07:44:11.125Z,96.07
2019-02-25T07:45:11.103Z,96.16
2019-02-25T07:46:11.068Z,96.26
2019-02-25T07:47:11.043Z,95.78
2019-02-25T07:48:11.017Z,95.69
2019-02-25T07:49:10.995Z,95.40
2019-02-25T07:50:10.969Z,94.74
2019-02-25T07:51:10.942Z,93.99
2019-02-25T07:52:10.913Z,93.75
2019-02-25T07:53:10.894Z,93.13
2019-02-25T07:54:10.869Z,94.04
2019-02-25T07:55:10.839Z,93.56
2019-02-25T07:56:10.814Z,92.43
2019-02-25T07:57:10.796Z,92.43
2019-02-25T07:58:10.763Z,92.80
2019-02-25T07:59:10.738Z,92.71
2019-02-25T08:00:10.712Z,93.65
2019-02-25T08:01:10.686Z,93.94
2019-02-25T08:02:10.658Z,94.13
2019-02-25T08:03:10.636Z,94.42
2019-02-25T08:04:10.610Z,94.65
2019-02-25T08:05:10.585Z,93.99
2019-02-25T08:06:12.007Z,93.70
2019-02-25T08:07:10.532Z,92.66
2019-02-25T08:08:10.509Z,92.09
2019-02-25T08:09:10.485Z,91.43
2019-02-25T08:10:10.457Z,91.43
2019-02-25T08:11:10.436Z,91.24
2019-02-25T08:12:10.408Z,90.86
2019-02-25T08:13:10.381Z,91.43
2019-02-25T08:14:10.358Z,91.43
2019-02-25T08:15:10.331Z,91.14
2019-02-25T08:16:10.306Z,91.24
2019-02-25T08:17:10.281Z,90.86
2019-02-25T08:18:10.259Z,90.58
2019-02-25T08:19:10.235Z,90.62
2019-02-25T08:20:10.208Z,91.09
2019-02-25T08:21:10.181Z,90.15
2019-02-25T08:22:10.155Z,90.43
2019-02-25T08:23:10.139Z,90.72
2019-02-25T08:24:10.111Z,90.72
2019-02-25T08:25:10.079Z,90.24
2019-02-25T08:26:10.056Z,90.15
2019-02-25T08:27:10.033Z,89.86
2019-02-25T08:28:10.011Z,89.58
2019-02-25T08:29:09.988Z,90.05
2019-02-25T08:30:09.957Z,90.81
2019-02-25T08:31:09.936Z,91.47
2019-02-25T08:32:09.915Z,91.57
2019-02-25T08:33:09.879Z,91.38
2019-02-25T08:34:18.382Z,89.86
2019-02-25T08:35:09.833Z,88.25
2019-02-25T08:36:09.810Z,86.07
2019-02-25T08:37:09.780Z,84.65
2019-02-25T08:38:09.756Z,84.03
2019-02-25T08:39:09.730Z,82.89
2019-02-25T08:40:11.620Z,83.08
2019-02-25T08:41:09.680Z,83.17
2019-02-25T08:42:09.671Z,82.98
2019-02-25T08:43:09.631Z,82.79
2019-02-25T08:44:09.613Z,82.79
2019-02-25T08:45:09.583Z,82.60
2019-02-25T08:46:09.557Z,82.13
2019-02-25T08:47:09.544Z,82.89
2019-02-25T08:48:09.511Z,82.79
2019-02-25T08:49:09.492Z,82.89
2019-02-25T08:50:09.459Z,82.42
2019-02-25T08:51:09.433Z,82.32
2019-02-25T08:52:09.411Z,81.94
2019-02-25T08:53:09.393Z,82.08
2019-02-25T08:54:09.361Z,82.08
2019-02-25T08:55:09.337Z,81.98
2019-02-25T08:56:09.322Z,81.41
2019-02-25T08:57:09.293Z,80.94
2019-02-25T08:58:09.400Z,81.23
2019-02-25T08:59:09.249Z,81.04
2019-02-25T09:00:09.217Z,79.80
2019-02-25T09:01:09.244Z,79.04
2019-02-25T09:02:09.175Z,79.04
2019-02-25T09:03:09.148Z,78.09
2019-02-25T09:04:09.127Z,77.81
2019-02-25T09:05:09.103Z,77.52
2019-02-25T09:06:09.074Z,77.71
2019-02-25T09:07:09.050Z,78.00
2019-02-25T09:08:09.026Z,77.33
2019-02-25T09:09:08.996Z,76.76
2019-02-25T09:10:08.974Z,76.14
2019-02-25T09:11:14.180Z,76.10
2019-02-25T09:12:08.929Z,75.76
2019-02-25T09:13:08.899Z,75.38
2019-02-25T09:14:08.874Z,75.09
2019-02-25T09:15:08.850Z,74.24
2019-02-25T09:16:08.825Z,74.90
2019-02-25T09:17:08.799Z,75.47
2019-02-25T09:18:08.778Z,75.28
2019-02-25T09:19:08.754Z,75.00
2019-02-25T09:20:08.740Z,74.90
2019-02-25T09:21:08.705Z,74.81
2019-02-25T09:22:08.692Z,75.60
2019-02-25T09:23:08.657Z,75.51
2019-02-25T09:24:08.642Z,75.04
2019-02-25T09:25:08.610Z,74.37
2019-02-25T09:26:08.585Z,73.90
2019-02-25T09:27:08.566Z,73.71
2019-02-25T09:28:08.537Z,73.99
2019-02-25T09:29:08.521Z,74.08
2019-02-25T09:30:08.488Z,74.08
2019-02-25T09:31:08.465Z,73.80
2019-02-25T09:32:08.443Z,73.71
2019-02-25T09:33:08.419Z,73.23
2019-02-25T09:34:08.391Z,72.56
2019-02-25T09:35:08.368Z,72.13
2019-02-25T09:36:08.345Z,70.04
2019-02-25T09:37:08.319Z,68.90
2019-02-25T09:38:08.298Z,68.33
2019-02-25T09:39:08.281Z,68.80
2019-02-25T09:40:08.250Z,68.99
2019-02-25T09:41:08.224Z,69.41
2019-02-25T09:42:08.209Z,68.07
2019-02-25T09:43:08.178Z,67.41
2019-02-25T09:44:08.154Z,67.69
2019-02-25T09:45:08.130Z,66.36
2019-02-25T09:46:08.114Z,66.55
2019-02-25T09:47:08.085Z,66.36
2019-02-25T09:48:08.069Z,67.03
2019-02-25T09:49:08.046Z,67.69
2019-02-25T09:50:08.028Z,68.36
2019-02-25T09:51:07.997Z,68.46
2019-02-25T09:52:07.964Z,68.93
2019-02-25T09:53:07.944Z,68.93
2019-02-25T09:54:07.916Z,69.02
2019-02-25T09:55:07.900Z,68.65
2019-02-25T09:56:07.875Z,67.88
2019-02-25T09:57:07.857Z,67.60
2019-02-25T09:58:10.815Z,66.74
2019-02-25T09:59:07.799Z,66.36
2019-02-25T10:00:07.778Z,66.39
2019-02-25T10:01:07.758Z,65.45
2019-02-25T10:02:07.728Z,64.78
2019-02-25T10:03:07.720Z,64.40
2019-02-25T10:04:08.812Z,64.21
2019-02-25T10:05:07.670Z,64.59
2019-02-25T10:06:07.637Z,63.76
2019-02-25T10:07:07.613Z,63.96
2019-02-25T10:08:07.589Z,62.91
2019-02-25T10:09:07.575Z,62.72
2019-02-25T10:10:07.546Z,62.24
2019-02-25T10:11:07.526Z,61.86
2019-02-25T10:12:07.497Z,62.05
2019-02-25T10:13:07.473Z,61.96
2019-02-25T10:14:07.450Z,61.48
2019-02-25T10:15:07.429Z,61.58
2019-02-25T10:16:07.404Z,61.00
2019-02-25T10:17:07.383Z,60.82
2019-02-25T10:18:07.364Z,60.24
2019-02-25T10:19:07.340Z,59.67
2019-02-25T10:20:07.319Z,60.05
2019-02-25T10:21:07.288Z,59.03
2019-02-25T10:22:07.268Z,58.94
2019-02-25T10:23:07.255Z,57.51
2019-02-25T10:24:07.224Z,57.13
2019-02-25T10:25:07.202Z,56.37
2019-02-25T10:26:07.174Z,56.09
2019-02-25T10:27:07.153Z,56.65
2019-02-25T10:28:07.130Z,57.13
2019-02-25T10:29:07.108Z,57.99
2019-02-25T10:30:07.085Z,58.08
2019-02-25T10:31:07.059Z,57.80
2019-02-25T10:32:07.057Z,58.08
2019-02-25T10:33:07.018Z,58.84
2019-02-25T10:34:07.667Z,59.42
2019-02-25T10:35:06.972Z,59.13
2019-02-25T10:36:06.947Z,57.89
2019-02-25T10:37:06.925Z,57.13
2019-02-25T10:38:06.904Z,56.65
2019-02-25T10:39:08.590Z,56.09
2019-02-25T10:40:06.904Z,55.99
2019-02-25T10:41:06.836Z,56.49
2019-02-25T10:42:06.815Z,56.11
2019-02-25T10:43:06.793Z,54.68
2019-02-25T10:44:08.517Z,53.92
2019-02-25T10:45:07.366Z,54.02
2019-02-25T10:46:07.111Z,54.78
2019-02-25T10:47:06.700Z,55.07
2019-02-25T10:48:06.679Z,53.92
2019-02-25T10:49:11.649Z,55.35
2019-02-25T10:50:07.460Z,54.90
2019-02-25T10:51:07.642Z,52.71
2019-02-25T10:52:08.644Z,52.42
2019-02-25T10:53:06.577Z,53.66
2019-02-25T10:54:06.550Z,52.71
2019-02-25T10:55:06.524Z,51.47
2019-02-25T10:56:06.499Z,50.42
2019-02-25T10:57:06.479Z,49.87
2019-02-25T10:58:06.462Z,50.35
2019-02-25T10:59:08.118Z,50.35
2019-02-25T11:00:07.388Z,50.45
2019-02-25T11:01:08.462Z,50.54
2019-02-25T11:02:06.368Z,49.87
2019-02-25T11:03:06.345Z,49.87
2019-02-25T11:04:06.333Z,50.54
2019-02-25T11:05:06.300Z,49.68
2019-02-25T11:06:06.287Z,48.83
2019-02-25T11:07:07.825Z,48.83
2019-02-25T11:08:07.480Z,50.07
2019-02-25T11:09:07.036Z,51.02
2019-02-25T11:10:06.192Z,51.50
2019-02-25T11:11:06.169Z,51.56
2019-02-25T11:12:06.164Z,50.80
2019-02-25T11:13:06.126Z,51.56
2019-02-25T11:14:07.203Z,49.95
2019-02-25T11:15:07.480Z,48.92
2019-02-25T11:16:06.063Z,49.68
2019-02-25T11:17:06.037Z,50.35
2019-02-25T11:18:06.022Z,52.45
2019-02-25T11:19:05.999Z,52.16
2019-02-25T11:20:05.980Z,50.35
2019-02-25T11:21:06.904Z,50.63
2019-02-25T11:22:07.807Z,50.35
2019-02-25T11:23:05.909Z,51.31
2019-02-25T11:24:05.889Z,51.97
2019-02-25T11:25:05.865Z,52.76
2019-02-25T11:26:05.850Z,51.52
2019-02-25T11:27:07.309Z,51.52
2019-02-25T11:28:07.619Z,49.42
2019-02-25T11:29:07.639Z,46.84
2019-02-25T11:30:05.766Z,46.27
2019-02-25T11:31:05.739Z,46.66
2019-02-25T11:32:05.717Z,46.94
2019-02-25T11:33:05.700Z,47.34
2019-02-25T11:34:07.863Z,48.08
2019-02-25T11:35:06.375Z,48.57
2019-02-25T11:36:05.642Z,48.39
2019-02-25T11:37:05.612Z,47.99
2019-02-25T11:38:05.594Z,47.61
2019-02-25T11:39:07.009Z,44.87
2019-02-25T11:40:05.547Z,44.29
2019-02-25T11:41:07.132Z,43.62
2019-02-25T11:42:07.425Z,43.43
2019-02-25T11:43:05.490Z,44.77
2019-02-25T11:44:05.464Z,43.91
2019-02-25T11:45:05.443Z,42.96
2019-02-25T11:46:05.424Z,42.10
2019-02-25T11:47:05.397Z,41.91
2019-02-25T11:48:05.387Z,42.29
2019-02-25T11:49:05.354Z,43.07
2019-02-25T11:50:05.334Z,43.74
2019-02-25T11:51:05.312Z,43.55
2019-02-25T11:52:05.299Z,43.55
2019-02-25T11:53:05.273Z,43.82
2019-02-25T11:54:05.258Z,43.62
2019-02-25T11:55:05.231Z,43.62
2019-02-25T11:56:05.209Z,43.33
2019-02-25T11:57:05.193Z,43.53
2019-02-25T11:58:05.167Z,44.41
2019-02-25T11:59:05.146Z,44.02
2019-02-25T12:00:05.128Z,42.97
2019-02-25T12:01:05.111Z,42.50
2019-02-25T12:02:05.085Z,42.69
2019-02-25T12:03:05.069Z,43.07
2019-02-25T12:04:05.043Z,42.79
2019-02-25T12:05:05.021Z,43.26
2019-02-25T12:06:05.000Z,43.36
2019-02-25T12:07:04.982Z,44.89
2019-02-25T12:08:04.961Z,44.89
2019-02-25T12:09:04.942Z,43.55
2019-02-25T12:10:04.916Z,44.51
2019-02-25T12:11:04.896Z,45.46
2019-02-25T12:12:04.878Z,42.79
2019-02-25T12:13:04.855Z,42.02
2019-02-25T12:14:04.833Z,41.35
2019-02-25T12:15:04.833Z,42.11
2019-02-25T12:16:04.793Z,42.50
2019-02-25T12:17:04.772Z,41.93
2019-02-25T12:18:04.751Z,40.78
2019-02-25T12:19:04.729Z,40.97
2019-02-25T12:20:04.707Z,39.83
2019-02-25T12:21:04.688Z,40.01
2019-02-25T12:22:04.668Z,40.01
2019-02-25T12:23:04.648Z,39.35
2019-02-25T12:24:04.626Z,41.06
2019-02-25T12:25:04.611Z,41.83
2019-02-25T12:26:04.603Z,41.83
2019-02-25T12:27:04.567Z,42.69
2019-02-25T12:28:04.544Z,42.11
2019-02-25T12:29:10.759Z,42.60
2019-02-25T12:30:04.507Z,40.88
2019-02-25T12:31:04.491Z,40.01
2019-02-25T12:32:04.465Z,41.66
2019-02-25T12:33:04.444Z,42.90
2019-02-25T12:34:04.434Z,42.81
2019-02-25T12:35:04.402Z,42.52
2019-02-25T12:36:04.384Z,43.19
2019-02-25T12:37:04.369Z,43.76
2019-02-25T12:38:04.338Z,43.66
2019-02-25T12:39:04.338Z,45.01
2019-02-25T12:40:04.302Z,46.72
2019-02-25T12:41:04.284Z,45.01
2019-02-25T12:42:04.267Z,43.69
2019-02-25T12:43:04.238Z,42.71
2019-02-25T12:44:04.228Z,42.33
2019-02-25T12:45:04.197Z,41.95
2019-02-25T12:46:04.181Z,42.81
2019-02-25T12:47:04.159Z,42.71
2019-02-25T12:48:04.144Z,42.71
2019-02-25T12:49:04.114Z,43.19
2019-02-25T12:50:04.093Z,43.19
2019-02-25T12:51:04.074Z,43.09
2019-02-25T12:52:04.057Z,43.88